Terminal Aerodrome Forecast
Issued by NWS

Home | Current Version | Previous Version | Graphics & Text | Print | Product List | Glossary On
Versions: 1 2 3 4 5 6 7 8 9 10 11 12 13 14 15 16 17 18 19 20 21 22 23 24 25 26 27 28 29 30 31 32 33 34 35
000
FTUS43 KPAH 141720
TAFOWB
TAF
KOWB 141720Z 1418/1518 14009KT 4SM -SNPL BR OVC025
      TEMPO 1418/1422 2SM -FZRAPL BR OVC010
     FM150000 14006KT 4SM BR OVC020
     FM150400 VRB03KT 5SM BR OVC020=

USA.gov is the U.S. government's official web portal to all federal, state and local government web resources and services.